Wardsboro, VT (05355)

8:51 PM EST on February 08, 2016 (GMT -0500)
2 Miles up a dirt road | | Change Station
CLOSE
Current Station
Personal Weather Station
Location: East Dover, VT
Elevation: 1699 ft
Nearby Weather Stations

Elev 1699 ft 42.98 °N, 72.78 °W | Updated 57 seconds ago

Snow
Snow
18.3 °F
Feels Like 18 °F
N
0.0
Wind Variable Wind from NNE
Gusts 0.0 mph

Today
High -- | Low -- °F
--% Chance of Precip.
Yesterday
High -- | Low -- °F
Precip. -- in
Pressure 29.74 in
Visibility 1.2 miles
Clouds Overcast 1500 ft
Windchill 18 °F
Dew Point 14 °F
Humidity 82%
Rainfall 0.00 in
Snow Depth Not available.
6:58 AM 5:12 PM
New Moon, 0% visible
SPECI KDDH 090128Z AUTO 00000KT 1 1/4SM -SN BR OVC015 M06/M07 A2974 RMK AO2 P0001 T10561072
Pressure 29.74 in
Visibility 1.2 miles
Clouds Overcast 1500 ft
Windchill 18 °F
Dew Point 14 °F
Humidity 82%
Rainfall 0.00 in
Snow Depth Not available.
6:58 AM 5:12 PM
New Moon, 0% visible
SPECI KDDH 090128Z AUTO 00000KT 1 1/4SM -SN BR OVC015 M06/M07 A2974 RMK AO2 P0001 T10561072
Winter Storm will continue impacting eastern New England through Monday night with a combination of heavy snow and strong winds, resulting in dangerous travel conditions. In parts of southeast Massachusetts, blizzard conditions are possible along with tree damage, some power outages and coastal flooding. As of late Monday morning, winds had gusted up to 57 mph on Nantucket Island and coastal flooding was reported in several locations along the Massachusetts coast.

10-Day Weather Forecast

Almanac

Astronomy

Feb. 08, 2016 Rise Set
Actual Time
Civil Twilight
Nautical Twilight
Astronomical Twilight
Moon
Length of Visible Light
Length of Day
Tomorrow will be .
, % of the Moon is Illuminated

Today's Extremes

State Highs State Lows

Community

WunderPhotos

Upload Photos

1,891,527 photos uploaded!

WunderBlog® & News

Nearby

Air Quality

  Air Quality AQ Index Pollutant
Not available.

Snow Depth

Station Depth Elevation

Earthquake Activity

City Distance Mag. Time & Date
Minimum magnitude displayed is 2.5.

Coastal Water Temperatures

Place Temperature

Stations

Nearby Weather Stations

Station Location Temp. Windchill Dew Point Humidity Wind Precip. Elev Updated Type
                   

Watches & Warnings

There are currently no watches in effect.